Time;durP1;ratioP1;P1;durP2;ratioP2;P2;SDS_P1;SDS_P2;PMS_P1;PMS_P2;Temp;Humidity;BMP_temperature;BMP_pressure;BME280_temperature;BME280_humidity;BME280_pressure;Samples;Min_cycle;Max_cycle;Signal;HPM_P1;HPM_P2
2021/08/20 00:01:20;;;;;;;6.10;2.88;;;22.60;89.80;;;;;;6187135;23;20005;-86
2021/08/20 00:03:46;;;;;;;5.75;3.10;;;22.60;89.80;;;;;;6186730;23;20024;-84
2021/08/20 00:06:12;;;;;;;5.00;3.10;;;22.50;89.90;;;;;;6187074;23;20420;-78
2021/08/20 00:08:37;;;;;;;6.38;3.25;;;22.50;89.50;;;;;;6186844;23;20008;-78
2021/08/20 00:11:04;;;;;;;7.53;3.42;;;22.50;89.90;;;;;;6186908;23;20009;-78
2021/08/20 00:13:30;;;;;;;6.57;3.42;;;22.50;89.60;;;;;;6187003;23;19997;-78
2021/08/20 00:15:56;;;;;;;6.30;3.53;;;22.50;89.80;;;;;;6187109;23;20009;-79
2021/08/20 00:18:23;;;;;;;6.05;2.97;;;22.50;89.80;;;;;;6186950;23;20007;-84
2021/08/20 00:20:49;;;;;;;5.18;3.45;;;22.50;89.90;;;;;;6186937;23;20005;-81
2021/08/20 00:23:15;;;;;;;7.05;3.13;;;22.50;89.80;;;;;;6186692;23;20003;-80
2021/08/20 00:25:41;;;;;;;6.15;3.03;;;22.50;89.90;;;;;;6186930;23;20012;-78
2021/08/20 00:28:07;;;;;;;12.95;3.30;;;22.40;89.80;;;;;;6186780;23;20001;-80
2021/08/20 00:30:33;;;;;;;6.25;3.70;;;22.40;90.00;;;;;;6186989;23;20019;-79
2021/08/20 00:32:58;;;;;;;22.02;3.38;;;22.40;89.90;;;;;;6186265;23;20072;-82
2021/08/20 00:35:24;;;;;;;7.10;2.92;;;22.40;90.00;;;;;;6186755;23;20005;-77
2021/08/20 00:37:50;;;;;;;4.88;3.50;;;22.40;90.10;;;;;;6186757;23;19997;-82
2021/08/20 00:40:16;;;;;;;4.90;3.30;;;22.30;90.10;;;;;;6186670;23;20076;-80
2021/08/20 00:42:42;;;;;;;5.07;3.47;;;22.30;90.10;;;;;;6160247;23;20435;-79
2021/08/20 00:45:08;;;;;;;7.65;3.78;;;22.30;90.10;;;;;;6187084;23;20001;-83
2021/08/20 00:47:33;;;;;;;6.22;3.05;;;22.30;90.10;;;;;;6186455;23;20334;-79
2021/08/20 00:50:05;;;;;;;5.35;3.50;;;22.30;90.10;;;;;;6186789;23;20017;-77
2021/08/20 00:52:31;;;;;;;4.93;3.55;;;22.30;90.10;;;;;;6186276;23;20005;-82
2021/08/20 00:54:57;;;;;;;5.80;3.25;;;22.30;89.80;;;;;;6186655;23;20443;-78
2021/08/20 00:57:22;;;;;;;3.53;3.13;;;22.30;89.80;;;;;;6186734;23;20450;-79
2021/08/20 00:59:48;;;;;;;5.80;4.38;;;22.30;89.70;;;;;;6185849;23;20033;-78
2021/08/20 01:02:15;;;;;;;4.50;3.50;;;22.40;90.10;;;;;;6184780;23;20063;-78
2021/08/20 01:04:41;;;;;;;5.95;3.53;;;22.40;89.20;;;;;;6185392;23;20043;-85
2021/08/20 01:07:08;;;;;;;8.63;3.50;;;22.40;89.00;;;;;;6185298;23;20076;-83
2021/08/20 01:09:36;;;;;;;5.43;3.15;;;22.40;89.10;;;;;;6185436;23;20024;-77
2021/08/20 01:12:02;;;;;;;7.28;3.58;;;22.50;88.90;;;;;;6185616;23;20106;-84
2021/08/20 01:14:32;;;;;;;6.18;3.50;;;22.50;88.40;;;;;;6185137;23;20009;-84
2021/08/20 01:17:03;;;;;;;6.28;2.95;;;22.60;88.20;;;;;;6185528;23;20011;-83
2021/08/20 01:19:33;;;;;;;4.70;3.25;;;22.60;87.80;;;;;;6185220;23;20443;-84
2021/08/20 01:22:00;;;;;;;4.72;3.42;;;22.60;87.70;;;;;;6185503;23;20001;-83
2021/08/20 01:24:28;;;;;;;5.20;3.17;;;22.60;87.40;;;;;;6184901;23;20001;-83
2021/08/20 01:26:53;;;;;;;4.55;3.45;;;22.70;87.40;;;;;;6185117;23;20079;-80
2021/08/20 01:29:20;;;;;;;10.35;3.50;;;22.70;87.20;;;;;;6184712;23;20009;-84
2021/08/20 01:31:47;;;;;;;10.45;3.28;;;22.70;87.20;;;;;;6185658;23;20004;-84
2021/08/20 01:34:14;;;;;;;9.88;3.33;;;22.70;87.00;;;;;;6186133;23;20083;-78
2021/08/20 01:36:39;;;;;;;5.55;3.20;;;22.80;87.00;;;;;;6186600;23;20000;-78
2021/08/20 01:39:06;;;;;;;7.75;2.80;;;22.80;86.70;;;;;;6186333;23;20072;-79
2021/08/20 01:41:33;;;;;;;5.28;2.80;;;22.80;86.60;;;;;;6186271;23;20035;-83
2021/08/20 01:44:00;;;;;;;6.63;3.88;;;22.80;86.50;;;;;;6185945;23;20083;-83
2021/08/20 01:46:27;;;;;;;8.27;2.90;;;22.80;86.40;;;;;;6186076;23;20005;-77
2021/08/20 01:48:56;;;;;;;4.20;2.83;;;22.80;86.30;;;;;;6185786;23;20009;-82
2021/08/20 01:51:26;;;;;;;6.60;3.22;;;22.80;86.30;;;;;;6186038;23;20005;-80
2021/08/20 01:53:53;;;;;;;6.95;3.08;;;22.80;86.50;;;;;;6185952;23;20052;-84
2021/08/20 01:56:21;;;;;;;7.40;3.15;;;22.80;86.30;;;;;;6186141;23;20059;-78
2021/08/20 01:58:48;;;;;;;5.60;2.97;;;22.80;86.50;;;;;;6185811;23;20087;-79
2021/08/20 02:01:14;;;;;;;5.68;3.20;;;22.80;86.60;;;;;;6185955;23;20032;-84
2021/08/20 02:03:40;;;;;;;4.63;3.20;;;22.80;86.40;;;;;;6185763;23;20486;-83
2021/08/20 02:06:06;;;;;;;3.80;2.67;;;22.70;86.70;;;;;;6185933;23;20005;-80
2021/08/20 02:08:32;;;;;;;7.63;3.55;;;22.70;86.70;;;;;;6185964;23;20421;-80
2021/08/20 02:10:58;;;;;;;4.00;3.10;;;22.70;86.80;;;;;;6185978;23;20004;-79
2021/08/20 02:13:24;;;;;;;3.88;2.92;;;22.70;86.90;;;;;;6185949;23;20077;-78
2021/08/20 02:15:50;;;;;;;6.90;3.28;;;22.60;86.80;;;;;;6187949;23;20350;-80
2021/08/20 02:18:17;;;;;;;8.55;3.20;;;22.60;86.90;;;;;;6188811;23;20068;-80
2021/08/20 02:20:43;;;;;;;4.43;3.00;;;22.60;87.10;;;;;;6186209;23;19993;-79
2021/08/20 02:23:09;;;;;;;5.00;2.80;;;22.60;87.10;;;;;;6186264;23;20005;-83
2021/08/20 02:25:35;;;;;;;4.38;2.88;;;22.60;87.10;;;;;;6186017;23;20001;-84
2021/08/20 02:28:01;;;;;;;6.13;3.25;;;22.50;87.30;;;;;;6185543;23;20513;-79
2021/08/20 02:30:27;;;;;;;6.50;3.50;;;22.50;87.40;;;;;;6185630;23;20428;-85
2021/08/20 02:32:52;;;;;;;8.18;3.10;;;22.50;87.30;;;;;;6185730;23;20368;-78
2021/08/20 02:35:18;;;;;;;6.50;3.08;;;22.50;87.50;;;;;;6185639;23;20016;-80
2021/08/20 02:37:44;;;;;;;3.92;2.72;;;22.50;87.50;;;;;;6185994;23;20016;-77
2021/08/20 02:40:10;;;;;;;7.07;3.17;;;22.50;87.40;;;;;;6185715;23;20051;-85
2021/08/20 02:42:36;;;;;;;4.93;3.05;;;22.50;87.30;;;;;;6185547;23;20030;-77
2021/08/20 02:45:02;;;;;;;5.05;3.10;;;22.50;87.30;;;;;;6186579;23;20012;-84
2021/08/20 02:47:27;;;;;;;9.55;3.35;;;22.50;87.40;;;;;;6185715;23;20025;-84
2021/08/20 02:49:53;;;;;;;5.32;3.20;;;22.50;87.40;;;;;;6185546;23;20020;-84
2021/08/20 02:52:19;;;;;;;4.57;3.10;;;22.50;87.40;;;;;;6185653;23;20055;-78
2021/08/20 02:54:45;;;;;;;4.10;2.97;;;22.50;87.40;;;;;;6185632;23;20009;-84
2021/08/20 02:57:10;;;;;;;5.65;3.33;;;22.50;87.60;;;;;;6185611;23;20001;-85
2021/08/20 02:59:36;;;;;;;10.38;3.30;;;22.50;87.50;;;;;;6185490;23;20159;-81
2021/08/20 03:02:02;;;;;;;7.40;2.88;;;22.50;87.60;;;;;;6185429;23;19997;-85
2021/08/20 03:04:28;;;;;;;4.93;2.95;;;22.40;87.70;;;;;;6185419;23;20079;-85
2021/08/20 03:06:54;;;;;;;6.07;3.05;;;22.50;87.50;;;;;;6185254;23;20413;-85
2021/08/20 03:09:20;;;;;;;8.57;3.22;;;22.50;87.50;;;;;;6185651;23;20009;-77
2021/08/20 03:11:47;;;;;;;6.97;3.45;;;22.50;87.50;;;;;;6185834;23;20036;-80
2021/08/20 03:14:14;;;;;;;7.00;3.15;;;22.40;87.60;;;;;;6185891;23;20009;-80
2021/08/20 03:16:40;;;;;;;5.20;2.95;;;22.40;87.50;;;;;;6185518;23;20032;-84
2021/08/20 03:19:06;;;;;;;5.90;3.50;;;22.40;87.60;;;;;;6185681;23;20443;-80
2021/08/20 03:21:32;;;;;;;6.13;3.00;;;22.50;87.40;;;;;;6185376;23;20001;-81
2021/08/20 03:23:58;;;;;;;5.40;2.95;;;22.50;87.40;;;;;;6185214;23;20001;-83
2021/08/20 03:26:24;;;;;;;5.97;3.08;;;22.50;87.60;;;;;;6185811;23;20008;-80
2021/08/20 03:28:50;;;;;;;6.05;2.95;;;22.50;87.50;;;;;;6185514;23;20438;-84
2021/08/20 03:31:16;;;;;;;7.93;3.25;;;22.50;87.50;;;;;;6185271;23;20439;-83
2021/08/20 03:33:42;;;;;;;4.90;2.70;;;22.50;87.50;;;;;;6185370;23;20313;-82
2021/08/20 03:36:07;;;;;;;10.15;4.20;;;22.50;87.60;;;;;;6185503;23;20001;-82
2021/08/20 03:38:33;;;;;;;5.45;3.10;;;22.40;87.40;;;;;;6185864;23;20467;-81
2021/08/20 03:40:59;;;;;;;4.82;3.03;;;22.50;87.60;;;;;;6185711;23;20064;-78
2021/08/20 03:43:25;;;;;;;4.43;3.00;;;22.50;88.00;;;;;;6158804;23;19998;-84
2021/08/20 03:45:50;;;;;;;6.43;3.08;;;22.50;87.40;;;;;;6185265;23;20001;-84
2021/08/20 03:48:16;;;;;;;6.47;3.47;;;22.50;87.40;;;;;;6185315;23;20008;-85
2021/08/20 03:50:41;;;;;;;6.22;2.70;;;22.50;87.50;;;;;;6185295;23;20092;-85
2021/08/20 03:53:07;;;;;;;4.45;3.08;;;22.40;87.50;;;;;;6185267;23;20001;-79
2021/08/20 03:55:33;;;;;;;6.18;3.28;;;22.50;87.50;;;;;;6185116;23;20012;-78
2021/08/20 03:57:58;;;;;;;4.93;3.45;;;22.50;87.50;;;;;;6185250;23;20487;-81
2021/08/20 04:00:24;;;;;;;4.68;3.08;;;22.50;87.60;;;;;;6185609;23;20474;-77
2021/08/20 04:02:50;;;;;;;6.43;3.20;;;22.40;87.60;;;;;;6184847;23;20017;-77
2021/08/20 04:05:15;;;;;;;5.00;2.70;;;22.40;87.70;;;;;;6185292;23;20079;-82
2021/08/20 04:07:41;;;;;;;4.13;3.17;;;22.40;87.80;;;;;;6185168;23;20005;-78
2021/08/20 04:10:07;;;;;;;5.05;3.20;;;22.40;87.90;;;;;;6186999;23;20019;-78
2021/08/20 04:12:33;;;;;;;5.40;2.85;;;22.40;88.00;;;;;;6186699;23;20001;-77
2021/08/20 04:14:58;;;;;;;5.25;3.00;;;22.40;88.00;;;;;;6187001;23;20005;-77
2021/08/20 04:17:24;;;;;;;4.78;3.15;;;22.40;87.90;;;;;;6187311;23;19997;-84
2021/08/20 04:19:50;;;;;;;4.60;2.80;;;22.40;88.00;;;;;;6186770;23;20005;-77
2021/08/20 04:22:15;;;;;;;6.38;3.13;;;22.40;88.00;;;;;;6186665;23;20427;-85
2021/08/20 04:24:42;;;;;;;4.93;2.88;;;22.40;88.00;;;;;;6186923;23;20471;-77
2021/08/20 04:27:08;;;;;;;5.22;2.63;;;22.40;88.10;;;;;;6186782;23;20024;-81
2021/08/20 04:29:35;;;;;;;4.75;2.88;;;22.50;88.10;;;;;;6186838;23;20396;-85
2021/08/20 04:32:00;;;;;;;9.38;3.90;;;22.50;88.10;;;;;;6187068;23;20324;-80
2021/08/20 04:34:26;;;;;;;5.28;2.92;;;22.50;88.00;;;;;;6187058;23;20012;-81
2021/08/20 04:36:52;;;;;;;5.10;3.22;;;22.60;87.30;;;;;;6186739;23;20064;-76
2021/08/20 04:39:18;;;;;;;12.73;3.30;;;22.60;87.50;;;;;;6186656;23;20024;-80
2021/08/20 04:41:44;;;;;;;6.13;2.85;;;22.70;87.40;;;;;;6186779;23;20055;-78
2021/08/20 04:44:09;;;;;;;8.32;3.92;;;22.70;87.90;;;;;;6186753;23;20071;-78
2021/08/20 04:46:37;;;;;;;5.60;3.58;;;22.80;87.20;;;;;;6186792;23;19998;-78
2021/08/20 04:49:03;;;;;;;4.90;3.53;;;22.80;87.30;;;;;;6186670;23;20009;-77
2021/08/20 04:51:28;;;;;;;3.03;2.40;;;22.90;87.10;;;;;;6186730;23;20080;-85
2021/08/20 04:53:54;;;;;;;4.88;2.85;;;22.90;86.40;;;;;;6187847;23;19997;-78
2021/08/20 04:56:20;;;;;;;5.47;2.95;;;23.10;86.70;;;;;;6189254;23;20009;-77
2021/08/20 04:58:47;;;;;;;4.78;2.80;;;23.50;85.40;;;;;;6186511;23;20072;-79
2021/08/20 05:01:13;;;;;;;6.57;3.08;;;24.00;84.70;;;;;;6185802;23;20235;-84
2021/08/20 05:03:39;;;;;;;4.57;2.80;;;24.70;82.70;;;;;;6185018;23;20009;-83
2021/08/20 05:06:05;;;;;;;4.97;2.55;;;25.40;81.40;;;;;;6185877;23;20032;-85
2021/08/20 05:08:31;;;;;;;4.88;2.78;;;26.00;79.50;;;;;;6185095;23;20047;-82
2021/08/20 05:10:56;;;;;;;7.50;3.10;;;26.80;77.80;;;;;;6185294;23;20013;-86
2021/08/20 05:13:22;;;;;;;4.30;2.80;;;27.80;76.10;;;;;;6185343;23;19997;-86
2021/08/20 05:15:48;;;;;;;13.15;2.78;;;28.50;74.20;;;;;;6185447;23;20032;-84
2021/08/20 05:18:13;;;;;;;6.13;3.17;;;28.70;73.40;;;;;;6185208;23;20059;-83
2021/08/20 05:20:39;;;;;;;5.82;2.15;;;28.70;73.60;;;;;;6185310;23;20001;-81
2021/08/20 05:23:05;;;;;;;3.28;2.10;;;28.90;73.40;;;;;;6185044;23;20044;-86
2021/08/20 05:25:35;;;;;;;5.15;2.10;;;29.30;72.90;;;;;;6185130;23;20051;-85
2021/08/20 05:28:03;;;;;;;12.93;2.77;;;30.00;71.70;;;;;;6185295;23;20001;-85
2021/08/20 05:30:29;;;;;;;8.70;3.03;;;30.90;70.10;;;;;;6185508;23;20088;-81
2021/08/20 05:32:55;;;;;;;4.50;2.78;;;31.70;68.60;;;;;;6159827;23;20075;-92
2021/08/20 05:35:21;;;;;;;3.20;2.38;;;32.40;67.60;;;;;;6185233;23;20416;-88
2021/08/20 05:37:46;;;;;;;5.07;2.63;;;33.10;66.00;;;;;;6185491;23;20035;-80
2021/08/20 05:40:13;;;;;;;5.80;2.30;;;33.60;65.50;;;;;;6185726;23;20488;-85
2021/08/20 05:42:38;;;;;;;7.88;2.50;;;33.90;64.40;;;;;;6185368;23;20016;-90
2021/08/20 05:45:06;;;;;;;3.03;2.28;;;34.30;63.90;;;;;;6185549;23;20033;-80
2021/08/20 05:47:32;;;;;;;4.03;2.80;;;34.90;62.80;;;;;;6185957;23;20043;-80
2021/08/20 05:49:59;;;;;;;3.65;2.50;;;35.00;62.20;;;;;;6186476;23;20088;-88
2021/08/20 05:52:25;;;;;;;35.17;2.70;;;34.60;62.00;;;;;;6185107;23;20044;-90
2021/08/20 05:54:50;;;;;;;5.13;2.70;;;34.70;62.60;;;;;;6185369;23;20005;-91
2021/08/20 05:57:16;;;;;;;5.25;2.00;;;34.70;61.70;;;;;;6185214;23;20012;-91
2021/08/20 05:59:42;;;;;;;2.80;2.00;;;35.20;61.20;;;;;;6184982;23;20381;-81
2021/08/20 06:02:09;;;;;;;2.53;1.90;;;35.80;60.70;;;;;;6184880;23;20096;-90
2021/08/20 06:04:34;;;;;;;7.55;2.40;;;36.40;59.80;;;;;;6184942;23;20001;-85
2021/08/20 06:07:00;;;;;;;9.02;2.60;;;36.40;59.80;;;;;;6184903;23;20016;-82
2021/08/20 06:09:26;;;;;;;7.18;2.28;;;36.60;59.40;;;;;;6184718;23;20482;-81
2021/08/20 06:11:52;;;;;;;9.98;2.05;;;37.10;59.10;;;;;;6184681;23;20028;-87
2021/08/20 06:14:17;;;;;;;29.40;3.85;;;37.50;58.30;;;;;;6185209;23;20013;-85
2021/08/20 06:16:43;;;;;;;6.07;2.40;;;37.90;57.70;;;;;;6184975;23;20076;-86
2021/08/20 06:19:09;;;;;;;8.95;2.67;;;37.70;57.70;;;;;;6184839;23;20012;-88
2021/08/20 06:21:34;;;;;;;14.38;2.10;;;37.90;57.60;;;;;;6186520;23;20005;-91
2021/08/20 06:24:00;;;;;;;6.63;2.00;;;38.60;57.20;;;;;;6185178;23;20390;-83
2021/08/20 06:26:26;;;;;;;3.20;2.13;;;39.00;56.20;;;;;;6185047;23;20012;-81
2021/08/20 06:28:52;;;;;;;6.07;2.25;;;38.80;55.70;;;;;;6184862;23;20009;-90
2021/08/20 06:31:17;;;;;;;2.63;1.85;;;38.70;55.50;;;;;;6184553;23;20012;-81
2021/08/20 06:33:43;;;;;;;2.75;1.92;;;38.10;55.70;;;;;;6184534;23;20008;-84
2021/08/20 06:36:09;;;;;;;3.78;1.55;;;38.50;56.30;;;;;;6185241;23;20032;-89
2021/08/20 06:38:34;;;;;;;2.88;1.67;;;39.10;56.00;;;;;;6184964;23;20428;-87
2021/08/20 06:41:00;;;;;;;5.93;1.70;;;40.00;55.60;;;;;;6184970;23;20032;-88
2021/08/20 06:43:26;;;;;;;3.10;2.13;;;40.50;55.30;;;;;;6185233;23;20009;-85
2021/08/20 06:45:52;;;;;;;6.75;2.40;;;40.60;55.10;;;;;;6185033;23;20031;-86
2021/08/20 06:48:18;;;;;;;3.10;2.30;;;41.00;54.90;;;;;;6185031;23;20424;-81
2021/08/20 06:50:44;;;;;;;3.90;2.10;;;41.50;54.50;;;;;;6185088;23;20452;-87
2021/08/20 06:53:11;;;;;;;7.22;1.98;;;41.70;54.10;;;;;;6185516;23;20009;-89
2021/08/20 06:55:37;;;;;;;6.18;2.45;;;42.40;54.20;;;;;;6185119;23;20028;-88
2021/08/20 06:58:03;;;;;;;9.68;2.33;;;43.10;53.60;;;;;;6184669;23;20427;-83
2021/08/20 07:00:28;;;;;;;4.95;1.95;;;43.00;52.10;;;;;;6185147;23;20005;-82
2021/08/20 07:02:55;;;;;;;5.85;2.10;;;42.80;52.70;;;;;;6184759;23;20032;-82
2021/08/20 07:05:21;;;;;;;5.40;2.10;;;42.60;53.00;;;;;;6184569;23;20336;-83
2021/08/20 07:07:47;;;;;;;6.47;2.03;;;42.50;53.10;;;;;;6184805;23;20001;-85
2021/08/20 07:10:17;;;;;;;4.30;2.13;;;42.20;53.20;;;;;;6185768;23;20456;-84
2021/08/20 07:12:43;;;;;;;3.17;1.52;;;42.00;52.40;;;;;;6185866;23;20005;-81
2021/08/20 07:15:12;;;;;;;3.88;1.95;;;42.00;52.30;;;;;;6185860;23;20368;-85
2021/08/20 07:17:38;;;;;;;3.22;1.70;;;42.10;52.70;;;;;;6185452;23;20005;-86
2021/08/20 07:20:05;;;;;;;4.07;1.67;;;42.50;52.30;;;;;;6187758;23;19997;-81
2021/08/20 07:22:31;;;;;;;2.60;2.00;;;43.00;51.90;;;;;;6193913;23;20033;-82
2021/08/20 07:24:57;;;;;;;5.90;1.85;;;43.40;51.10;;;;;;6188455;23;20006;-81
2021/08/20 07:27:22;;;;;;;26.05;2.20;;;43.10;51.70;;;;;;6185525;23;20009;-88
2021/08/20 07:29:48;;;;;;;6.68;1.92;;;43.60;51.70;;;;;;6185384;23;20016;-80
2021/08/20 07:32:14;;;;;;;3.28;1.90;;;43.30;51.10;;;;;;6185625;23;20005;-87
2021/08/20 07:34:40;;;;;;;6.05;1.95;;;43.30;51.50;;;;;;6185547;23;20458;-81
2021/08/20 07:37:06;;;;;;;2.15;1.65;;;43.40;51.20;;;;;;6185432;23;19997;-89
2021/08/20 07:39:32;;;;;;;2.30;1.70;;;43.50;50.60;;;;;;6185949;23;20028;-83
2021/08/20 07:41:59;;;;;;;1.90;1.65;;;43.70;50.30;;;;;;6185462;23;20127;-80
2021/08/20 07:44:25;;;;;;;9.65;1.45;;;44.10;50.30;;;;;;6187575;23;20128;-90
2021/08/20 07:46:52;;;;;;;2.33;1.80;;;44.40;50.10;;;;;;6187403;23;20001;-84
2021/08/20 07:49:18;;;;;;;2.08;1.77;;;43.70;49.90;;;;;;6187362;23;20064;-85
2021/08/20 07:51:43;;;;;;;2.25;2.05;;;43.10;50.60;;;;;;6187260;23;20004;-79
2021/08/20 07:54:09;;;;;;;7.15;1.60;;;43.20;50.40;;;;;;6187526;23;20459;-89
2021/08/20 07:56:35;;;;;;;6.05;1.70;;;43.40;50.10;;;;;;6187632;23;19997;-82
2021/08/20 07:59:01;;;;;;;2.95;2.08;;;43.70;50.00;;;;;;6187046;23;20444;-88
2021/08/20 08:01:26;;;;;;;3.30;1.80;;;43.20;50.00;;;;;;6187297;23;20004;-82
2021/08/20 08:03:57;;;;;;;4.32;1.75;;;42.80;50.50;;;;;;6186944;23;20009;-89
2021/08/20 08:06:23;;;;;;;1.95;1.65;;;42.90;51.00;;;;;;6187616;23;20012;-90
2021/08/20 08:08:49;;;;;;;1.83;1.70;;;42.90;50.90;;;;;;6187276;23;20320;-88
2021/08/20 08:11:15;;;;;;;2.13;1.50;;;42.70;50.70;;;;;;6187260;23;20005;-86
2021/08/20 08:13:41;;;;;;;5.38;1.80;;;42.70;50.50;;;;;;6187088;23;20054;-87
2021/08/20 08:16:06;;;;;;;2.40;2.00;;;42.40;50.50;;;;;;6186313;23;20008;-78
2021/08/20 08:18:32;;;;;;;2.38;1.77;;;41.80;50.90;;;;;;6186638;23;20527;-88
2021/08/20 08:20:58;;;;;;;7.22;2.15;;;41.50;51.50;;;;;;6186990;23;20005;-87
2021/08/20 08:23:24;;;;;;;3.10;2.03;;;40.90;51.50;;;;;;6187132;23;20420;-88
2021/08/20 08:25:49;;;;;;;3.60;1.67;;;40.70;52.30;;;;;;6187421;23;20060;-88
2021/08/20 08:28:15;;;;;;;6.35;1.45;;;40.80;51.80;;;;;;6187002;23;20076;-84
2021/08/20 08:30:42;;;;;;;4.28;2.00;;;41.10;52.10;;;;;;6186831;23;20309;-78
2021/08/20 08:33:09;;;;;;;2.55;1.70;;;41.20;51.50;;;;;;6186957;23;20429;-92
2021/08/20 08:35:35;;;;;;;6.40;2.45;;;41.80;51.50;;;;;;6186746;23;20008;-80
2021/08/20 08:38:21;;;;;;;9.57;2.00;;;41.70;51.60;;;;;;6187077;23;20001;-86
2021/08/20 08:40:48;;;;;;;3.25;2.20;;;41.60;51.60;;;;;;6186586;23;20429;-78
2021/08/20 08:43:15;;;;;;;6.45;1.90;;;41.60;51.70;;;;;;6186854;23;19997;-85
2021/08/20 08:45:41;;;;;;;6.57;2.13;;;41.20;52.90;;;;;;6186992;23;20001;-88
2021/08/20 08:48:14;;;;;;;4.03;1.80;;;40.70;52.70;;;;;;6186780;23;20001;-87
2021/08/20 08:50:43;;;;;;;2.88;1.90;;;40.10;53.60;;;;;;6186671;23;20016;-84
2021/08/20 08:53:09;;;;;;;4.97;2.05;;;39.20;54.10;;;;;;6186621;23;20004;-87
2021/08/20 08:55:35;;;;;;;3.60;2.50;;;38.30;55.00;;;;;;6159999;23;20005;-90
2021/08/20 08:58:05;;;;;;;6.78;1.95;;;37.80;56.10;;;;;;6186610;23;20067;-91
2021/08/20 09:00:36;;;;;;;4.63;2.45;;;37.40;56.80;;;;;;6185584;23;20008;-90
2021/08/20 09:03:03;;;;;;;3.75;1.98;;;37.30;56.90;;;;;;6185718;23;20082;-90
2021/08/20 09:05:42;;;;;;;5.00;2.72;;;37.20;56.90;;;;;;6187150;23;20029;-87
2021/08/20 09:08:20;;;;;;;4.35;1.95;;;36.80;56.70;;;;;;6186728;23;20072;-91
2021/08/20 09:10:57;;;;;;;3.83;2.15;;;36.50;57.20;;;;;;6187047;23;20317;-83
2021/08/20 09:13:23;;;;;;;10.00;2.20;;;36.30;57.60;;;;;;6187000;23;20494;-94
2021/08/20 09:16:12;;;;;;;5.35;3.78;;;36.10;57.80;;;;;;6186695;23;20072;-92
2021/08/20 09:18:40;;;;;;;10.35;2.08;;;36.10;58.20;;;;;;6186573;23;20005;-76
2021/08/20 09:21:07;;;;;;;5.32;2.42;;;36.00;58.80;;;;;;6186179;23;20005;-79
2021/08/20 09:23:33;;;;;;;13.05;2.70;;;35.50;59.60;;;;;;6185913;23;20001;-90
2021/08/20 09:26:00;;;;;;;8.65;2.60;;;35.20;60.70;;;;;;6185841;23;20433;-82
2021/08/20 09:28:34;;;;;;;6.55;2.72;;;35.10;60.80;;;;;;6186791;23;20475;-87
2021/08/20 09:31:22;;;;;;;9.93;2.50;;;34.70;60.30;;;;;;6186300;23;20067;-86
2021/08/20 09:33:50;;;;;;;4.10;2.63;;;34.40;61.20;;;;;;6186207;23;20450;-88
2021/08/20 09:36:23;;;;;;;6.25;2.55;;;34.60;60.60;;;;;;6185797;23;20028;-90
2021/08/20 09:38:56;;;;;;;3.65;2.17;;;34.80;60.40;;;;;;6185935;23;20005;-85
2021/08/20 09:41:32;;;;;;;3.10;2.10;;;35.10;61.70;;;;;;6186796;23;20012;-83
2021/08/20 09:44:03;;;;;;;3.90;2.63;;;35.00;62.40;;;;;;6186843;23;20028;-81
2021/08/20 09:46:45;;;;;;;3.97;2.50;;;34.60;62.80;;;;;;6186393;23;20076;-82
2021/08/20 09:49:14;;;;;;;9.35;2.80;;;34.20;63.50;;;;;;6185220;23;20009;-88
2021/08/20 09:51:47;;;;;;;6.95;2.58;;;34.30;64.80;;;;;;6186632;23;20005;-78
2021/08/20 09:54:18;;;;;;;4.03;2.65;;;34.20;64.40;;;;;;6187311;23;20025;-90
2021/08/20 09:56:45;;;;;;;5.35;2.60;;;34.20;65.20;;;;;;6186322;23;20081;-84
2021/08/20 09:59:13;;;;;;;4.18;2.40;;;34.10;65.50;;;;;;6186848;23;20425;-82
2021/08/20 10:01:43;;;;;;;7.10;2.80;;;33.70;65.20;;;;;;6189161;23;20024;-79
2021/08/20 10:04:11;;;;;;;6.07;2.65;;;33.50;66.00;;;;;;6190964;23;20027;-81
2021/08/20 10:06:45;;;;;;;5.90;2.75;;;33.40;65.50;;;;;;6186220;23;20051;-79
2021/08/20 10:09:13;;;;;;;10.88;3.05;;;33.20;65.70;;;;;;6186003;23;20420;-80
2021/08/20 10:11:49;;;;;;;8.82;2.63;;;33.10;66.10;;;;;;6187068;23;20001;-88
2021/08/20 10:14:15;;;;;;;6.55;2.38;;;33.10;65.50;;;;;;6186827;23;20001;-91
2021/08/20 10:16:42;;;;;;;9.07;2.53;;;33.20;65.50;;;;;;6186655;23;19998;-91
2021/08/20 10:19:09;;;;;;;10.75;2.70;;;33.00;66.70;;;;;;6187574;23;20001;-89
2021/08/20 10:21:38;;;;;;;4.60;2.63;;;33.10;67.50;;;;;;6187198;23;20012;-88
2021/08/20 10:24:05;;;;;;;5.97;2.90;;;33.30;68.00;;;;;;6186755;23;20005;-83
2021/08/20 10:26:32;;;;;;;5.75;2.50;;;33.30;68.00;;;;;;6186618;23;20001;-88
2021/08/20 10:29:00;;;;;;;8.73;2.45;;;33.30;68.50;;;;;;6186368;23;19997;-92
2021/08/20 10:31:26;;;;;;;15.65;2.75;;;33.30;68.90;;;;;;6186888;23;20028;-80
2021/08/20 10:33:52;;;;;;;4.30;2.42;;;33.40;68.60;;;;;;6186652;23;20001;-91
2021/08/20 10:36:38;;;;;;;9.60;2.50;;;33.60;66.90;;;;;;6188148;23;20036;-79
2021/08/20 10:39:05;;;;;;;7.07;2.75;;;33.80;65.60;;;;;;6186598;23;20001;-85
2021/08/20 10:41:32;;;;;;;5.32;2.50;;;33.80;65.00;;;;;;6160225;23;20005;-88
2021/08/20 10:44:15;;;;;;;7.65;2.58;;;33.60;64.90;;;;;;6187218;23;20428;-90
2021/08/20 10:46:42;;;;;;;12.80;2.30;;;33.30;65.00;;;;;;6189678;23;20076;-90
2021/08/20 10:49:11;;;;;;;9.30;2.40;;;33.10;64.70;;;;;;6188667;23;20016;-78
2021/08/20 10:51:52;;;;;;;4.82;2.47;;;32.90;64.10;;;;;;6189245;23;20391;-92
2021/08/20 10:54:41;;;;;;;4.40;2.60;;;32.70;64.00;;;;;;6189567;23;20039;-91
2021/08/20 10:57:10;;;;;;;7.22;2.72;;;32.50;65.00;;;;;;6187402;23;20003;-87
2021/08/20 10:59:39;;;;;;;5.18;2.67;;;32.40;65.00;;;;;;6187938;23;20364;-89
2021/08/20 11:02:30;;;;;;;3.40;2.45;;;32.30;64.50;;;;;;6189329;23;20040;-91
2021/08/20 11:05:09;;;;;;;3.85;2.00;;;32.30;64.60;;;;;;6134542;23;20016;-88
2021/08/20 11:07:37;;;;;;;5.47;2.25;;;32.30;64.20;;;;;;6186307;23;20447;-92
2021/08/20 11:10:09;;;;;;;5.38;2.63;;;32.40;64.60;;;;;;6186340;23;20013;-79
2021/08/20 11:12:58;;;;;;;6.57;2.85;;;32.50;65.60;;;;;;6187614;23;20001;-78
2021/08/20 11:15:27;;;;;;;7.03;2.78;;;32.60;66.40;;;;;;6185919;23;20060;-93
2021/08/20 11:18:02;;;;;;;3.60;2.38;;;32.70;65.90;;;;;;6188491;23;20000;-79
2021/08/20 11:20:39;;;;;;;4.47;2.85;;;32.80;64.20;;;;;;6190766;23;20143;-88
2021/08/20 11:23:08;;;;;;;4.97;2.97;;;33.00;63.90;;;;;;6191000;23;20039;-94
2021/08/20 11:25:37;;;;;;;2.65;2.17;;;33.10;64.10;;;;;;6190074;23;20011;-78
2021/08/20 11:28:24;;;;;;;4.28;2.30;;;33.20;63.10;;;;;;6187880;23;20009;-86
2021/08/20 11:31:01;;;;;;;6.28;2.38;;;33.20;62.40;;;;;;6163691;23;20092;-79
2021/08/20 11:33:27;;;;;;;3.65;2.42;;;33.30;62.00;;;;;;6189050;23;20001;-90
2021/08/20 11:35:59;;;;;;;4.85;2.42;;;33.30;61.90;;;;;;6187846;23;20012;-85
2021/08/20 11:38:29;;;;;;;3.80;2.40;;;33.30;62.60;;;;;;6187718;23;20016;-85
2021/08/20 11:41:03;;;;;;;2.83;2.22;;;33.30;61.90;;;;;;6187708;23;20442;-86
2021/08/20 11:43:29;;;;;;;3.75;2.10;;;33.40;62.30;;;;;;6188190;23;20336;-87
2021/08/20 11:46:01;;;;;;;3.67;2.67;;;33.50;62.30;;;;;;6187476;23;20005;-79
2021/08/20 11:48:29;;;;;;;8.48;3.03;;;33.60;62.40;;;;;;6188226;23;20005;-89
2021/08/20 11:50:57;;;;;;;4.40;2.53;;;33.50;62.80;;;;;;6188879;23;20378;-89
2021/08/20 11:53:24;;;;;;;5.28;2.38;;;33.30;63.00;;;;;;6187754;23;20024;-81
2021/08/20 11:56:06;;;;;;;5.32;2.28;;;33.20;63.30;;;;;;6187591;23;20076;-79
2021/08/20 11:58:32;;;;;;;2.33;2.13;;;33.10;63.90;;;;;;6188037;23;20001;-78
2021/08/20 12:00:57;;;;;;;6.18;2.63;;;33.00;64.70;;;;;;6186955;23;20121;-90
2021/08/20 12:03:23;;;;;;;4.53;2.38;;;32.80;64.80;;;;;;6187608;23;20349;-90
2021/08/20 12:05:49;;;;;;;5.25;3.10;;;32.80;65.90;;;;;;6188331;23;20001;-79
2021/08/20 12:08:18;;;;;;;6.53;2.40;;;32.80;67.30;;;;;;6187718;23;19997;-91
2021/08/20 12:10:45;;;;;;;7.47;2.90;;;32.60;68.20;;;;;;6187290;23;20020;-80
2021/08/20 12:13:13;;;;;;;4.13;2.65;;;32.40;68.50;;;;;;6188270;23;20001;-80
2021/08/20 12:15:40;;;;;;;8.07;3.03;;;32.40;68.80;;;;;;6187249;23;20012;-79
2021/08/20 12:18:23;;;;;;;15.52;2.88;;;32.30;68.90;;;;;;6187354;23;19997;-81
2021/08/20 12:20:49;;;;;;;8.07;2.90;;;32.40;70.70;;;;;;6188016;23;20032;-81
2021/08/20 12:23:16;;;;;;;6.47;3.38;;;32.30;71.60;;;;;;6187454;23;19998;-90
2021/08/20 12:25:42;;;;;;;9.18;2.95;;;32.00;72.90;;;;;;6187452;23;20132;-90
2021/08/20 12:28:13;;;;;;;14.15;3.17;;;31.80;74.10;;;;;;6187416;23;20029;-90
2021/08/20 12:30:39;;;;;;;9.00;2.85;;;31.70;75.40;;;;;;6187039;23;20009;-80
2021/08/20 12:33:05;;;;;;;9.52;3.33;;;31.50;77.00;;;;;;6187592;23;20072;-90
2021/08/20 12:35:31;;;;;;;13.23;2.95;;;31.30;77.10;;;;;;6188014;23;20055;-80
2021/08/20 12:38:00;;;;;;;6.43;2.72;;;31.10;79.00;;;;;;6186705;23;20424;-85
2021/08/20 12:40:40;;;;;;;8.35;2.60;;;31.00;78.70;;;;;;6186836;23;20072;-80
2021/08/20 12:43:31;;;;;;;5.20;2.75;;;30.90;79.60;;;;;;6188726;23;19998;-80
2021/08/20 12:46:19;;;;;;;7.70;2.78;;;31.00;81.90;;;;;;6186614;23;20055;-82
2021/08/20 12:48:53;;;;;;;9.82;2.75;;;31.00;82.80;;;;;;6186645;23;20019;-81